sensor_id;sensor_type;location;lat;lon;timestamp;P1;durP1;ratioP1;P2;durP2;ratioP2
39502;SDS011;26970;49.900;10.774;2023-11-22T00:02:01;6.22;;;3.08;;
39502;SDS011;26970;49.900;10.774;2023-11-22T00:04:27;7.18;;;4.15;;
39502;SDS011;26970;49.900;10.774;2023-11-22T00:06:52;8.13;;;4.15;;
39502;SDS011;26970;49.900;10.774;2023-11-22T00:09:18;9.77;;;4.40;;
39502;SDS011;26970;49.900;10.774;2023-11-22T00:11:47;8.05;;;4.55;;
39502;SDS011;26970;49.900;10.774;2023-11-22T00:14:13;8.68;;;5.00;;
39502;SDS011;26970;49.900;10.774;2023-11-22T00:16:39;6.63;;;3.67;;
39502;SDS011;26970;49.900;10.774;2023-11-22T00:19:05;6.20;;;3.67;;
39502;SDS011;26970;49.900;10.774;2023-11-22T00:21:31;8.35;;;4.10;;
39502;SDS011;26970;49.900;10.774;2023-11-22T00:23:57;9.57;;;4.72;;
39502;SDS011;26970;49.900;10.774;2023-11-22T00:26:23;7.97;;;4.20;;
39502;SDS011;26970;49.900;10.774;2023-11-22T00:28:48;8.60;;;3.95;;
39502;SDS011;26970;49.900;10.774;2023-11-22T00:31:14;6.78;;;3.53;;
39502;SDS011;26970;49.900;10.774;2023-11-22T00:33:40;8.10;;;3.80;;
39502;SDS011;26970;49.900;10.774;2023-11-22T00:36:06;7.65;;;3.92;;
39502;SDS011;26970;49.900;10.774;2023-11-22T00:38:33;7.50;;;3.90;;
39502;SDS011;26970;49.900;10.774;2023-11-22T00:41:01;7.75;;;3.88;;
39502;SDS011;26970;49.900;10.774;2023-11-22T00:43:27;6.40;;;3.40;;
39502;SDS011;26970;49.900;10.774;2023-11-22T00:45:52;6.88;;;4.07;;
39502;SDS011;26970;49.900;10.774;2023-11-22T00:48:18;5.47;;;3.33;;
39502;SDS011;26970;49.900;10.774;2023-11-22T00:50:44;8.75;;;4.18;;
39502;SDS011;26970;49.900;10.774;2023-11-22T00:53:10;12.80;;;4.78;;
39502;SDS011;26970;49.900;10.774;2023-11-22T00:55:35;7.78;;;4.05;;
39502;SDS011;26970;49.900;10.774;2023-11-22T00:58:01;6.85;;;3.70;;
39502;SDS011;26970;49.900;10.774;2023-11-22T01:00:30;7.13;;;4.30;;
39502;SDS011;26970;49.900;10.774;2023-11-22T01:02:55;6.47;;;3.75;;
39502;SDS011;26970;49.900;10.774;2023-11-22T01:05:21;8.00;;;4.45;;
39502;SDS011;26970;49.900;10.774;2023-11-22T01:07:47;5.88;;;3.25;;
39502;SDS011;26970;49.900;10.774;2023-11-22T01:10:13;7.88;;;4.78;;
39502;SDS011;26970;49.900;10.774;2023-11-22T01:12:40;8.52;;;4.13;;
39502;SDS011;26970;49.900;10.774;2023-11-22T01:15:06;8.05;;;4.45;;
39502;SDS011;26970;49.900;10.774;2023-11-22T01:17:32;7.38;;;4.45;;
39502;SDS011;26970;49.900;10.774;2023-11-22T01:19:59;6.53;;;4.00;;
39502;SDS011;26970;49.900;10.774;2023-11-22T01:22:25;9.23;;;4.97;;
39502;SDS011;26970;49.900;10.774;2023-11-22T01:24:50;9.07;;;4.72;;
39502;SDS011;26970;49.900;10.774;2023-11-22T01:27:16;8.48;;;4.47;;
39502;SDS011;26970;49.900;10.774;2023-11-22T01:29:41;8.77;;;4.85;;
39502;SDS011;26970;49.900;10.774;2023-11-22T01:32:07;9.52;;;5.05;;
39502;SDS011;26970;49.900;10.774;2023-11-22T01:34:34;9.07;;;4.40;;
39502;SDS011;26970;49.900;10.774;2023-11-22T01:37:00;7.07;;;4.40;;
39502;SDS011;26970;49.900;10.774;2023-11-22T01:39:25;6.53;;;4.03;;
39502;SDS011;26970;49.900;10.774;2023-11-22T01:41:51;9.18;;;4.88;;
39502;SDS011;26970;49.900;10.774;2023-11-22T01:44:17;7.72;;;4.30;;
39502;SDS011;26970;49.900;10.774;2023-11-22T01:46:45;6.95;;;4.30;;
39502;SDS011;26970;49.900;10.774;2023-11-22T01:49:11;5.68;;;3.40;;
39502;SDS011;26970;49.900;10.774;2023-11-22T01:51:40;5.10;;;3.00;;
39502;SDS011;26970;49.900;10.774;2023-11-22T01:54:06;7.55;;;4.25;;
39502;SDS011;26970;49.900;10.774;2023-11-22T01:56:34;7.53;;;4.65;;
39502;SDS011;26970;49.900;10.774;2023-11-22T01:59:02;7.18;;;4.18;;
39502;SDS011;26970;49.900;10.774;2023-11-22T02:01:28;9.45;;;4.78;;
39502;SDS011;26970;49.900;10.774;2023-11-22T02:03:54;9.85;;;4.63;;
39502;SDS011;26970;49.900;10.774;2023-11-22T02:06:20;8.23;;;4.28;;
39502;SDS011;26970;49.900;10.774;2023-11-22T02:08:46;12.98;;;4.70;;
39502;SDS011;26970;49.900;10.774;2023-11-22T02:11:12;6.63;;;3.78;;
39502;SDS011;26970;49.900;10.774;2023-11-22T02:13:38;7.57;;;4.10;;
39502;SDS011;26970;49.900;10.774;2023-11-22T02:16:03;7.53;;;4.32;;
39502;SDS011;26970;49.900;10.774;2023-11-22T02:18:29;8.20;;;4.40;;
39502;SDS011;26970;49.900;10.774;2023-11-22T02:20:56;6.10;;;3.65;;
39502;SDS011;26970;49.900;10.774;2023-11-22T02:23:22;8.00;;;4.35;;
39502;SDS011;26970;49.900;10.774;2023-11-22T02:25:47;7.45;;;3.70;;
39502;SDS011;26970;49.900;10.774;2023-11-22T02:28:13;5.78;;;3.55;;
39502;SDS011;26970;49.900;10.774;2023-11-22T02:30:39;7.60;;;4.75;;
39502;SDS011;26970;49.900;10.774;2023-11-22T02:33:05;6.78;;;3.78;;
39502;SDS011;26970;49.900;10.774;2023-11-22T02:35:31;6.00;;;3.67;;
39502;SDS011;26970;49.900;10.774;2023-11-22T02:37:57;6.72;;;3.83;;
39502;SDS011;26970;49.900;10.774;2023-11-22T02:40:24;7.03;;;3.88;;
39502;SDS011;26970;49.900;10.774;2023-11-22T02:42:51;7.50;;;3.83;;
39502;SDS011;26970;49.900;10.774;2023-11-22T02:45:18;4.07;;;2.05;;
39502;SDS011;26970;49.900;10.774;2023-11-22T02:47:45;8.63;;;3.78;;
39502;SDS011;26970;49.900;10.774;2023-11-22T02:50:11;4.30;;;3.03;;
39502;SDS011;26970;49.900;10.774;2023-11-22T02:52:37;6.25;;;3.45;;
39502;SDS011;26970;49.900;10.774;2023-11-22T02:55:03;5.63;;;3.35;;
39502;SDS011;26970;49.900;10.774;2023-11-22T02:57:32;5.20;;;2.85;;
39502;SDS011;26970;49.900;10.774;2023-11-22T02:59:58;5.68;;;3.65;;
39502;SDS011;26970;49.900;10.774;2023-11-22T03:02:23;9.50;;;3.67;;
39502;SDS011;26970;49.900;10.774;2023-11-22T03:04:52;6.88;;;3.90;;
39502;SDS011;26970;49.900;10.774;2023-11-22T03:07:18;6.63;;;3.22;;
39502;SDS011;26970;49.900;10.774;2023-11-22T03:09:43;4.45;;;2.58;;
39502;SDS011;26970;49.900;10.774;2023-11-22T03:12:12;7.03;;;4.10;;
39502;SDS011;26970;49.900;10.774;2023-11-22T03:14:39;6.30;;;3.35;;
39502;SDS011;26970;49.900;10.774;2023-11-22T03:17:05;6.45;;;3.30;;
39502;SDS011;26970;49.900;10.774;2023-11-22T03:19:31;9.50;;;4.18;;
39502;SDS011;26970;49.900;10.774;2023-11-22T03:21:58;7.63;;;4.18;;
39502;SDS011;26970;49.900;10.774;2023-11-22T03:24:25;8.68;;;4.20;;
39502;SDS011;26970;49.900;10.774;2023-11-22T03:26:50;6.47;;;4.18;;
39502;SDS011;26970;49.900;10.774;2023-11-22T03:29:17;6.85;;;4.05;;
39502;SDS011;26970;49.900;10.774;2023-11-22T03:31:43;4.93;;;3.05;;
39502;SDS011;26970;49.900;10.774;2023-11-22T03:34:09;9.80;;;4.78;;
39502;SDS011;26970;49.900;10.774;2023-11-22T03:36:35;8.05;;;4.35;;
39502;SDS011;26970;49.900;10.774;2023-11-22T03:39:01;9.52;;;4.13;;
39502;SDS011;26970;49.900;10.774;2023-11-22T03:41:27;8.07;;;4.45;;
39502;SDS011;26970;49.900;10.774;2023-11-22T03:43:53;8.25;;;4.20;;
39502;SDS011;26970;49.900;10.774;2023-11-22T03:46:18;7.30;;;4.45;;
39502;SDS011;26970;49.900;10.774;2023-11-22T03:48:44;7.25;;;3.13;;
39502;SDS011;26970;49.900;10.774;2023-11-22T03:51:10;7.65;;;4.03;;
39502;SDS011;26970;49.900;10.774;2023-11-22T03:53:35;6.03;;;3.63;;
39502;SDS011;26970;49.900;10.774;2023-11-22T03:56:01;7.72;;;4.07;;
39502;SDS011;26970;49.900;10.774;2023-11-22T03:58:26;6.53;;;3.63;;
39502;SDS011;26970;49.900;10.774;2023-11-22T04:00:52;5.05;;;2.88;;
39502;SDS011;26970;49.900;10.774;2023-11-22T04:03:17;7.10;;;3.67;;
39502;SDS011;26970;49.900;10.774;2023-11-22T04:05:43;7.43;;;3.50;;
39502;SDS011;26970;49.900;10.774;2023-11-22T04:08:09;8.23;;;4.30;;
39502;SDS011;26970;49.900;10.774;2023-11-22T04:10:35;7.40;;;3.83;;
39502;SDS011;26970;49.900;10.774;2023-11-22T04:13:00;8.30;;;3.45;;
39502;SDS011;26970;49.900;10.774;2023-11-22T04:15:26;6.82;;;3.67;;
39502;SDS011;26970;49.900;10.774;2023-11-22T04:17:52;9.60;;;4.35;;
39502;SDS011;26970;49.900;10.774;2023-11-22T04:20:19;6.22;;;3.40;;
39502;SDS011;26970;49.900;10.774;2023-11-22T04:22:45;8.55;;;3.78;;
39502;SDS011;26970;49.900;10.774;2023-11-22T04:25:10;7.15;;;3.50;;
39502;SDS011;26970;49.900;10.774;2023-11-22T04:27:39;4.88;;;2.38;;
39502;SDS011;26970;49.900;10.774;2023-11-22T04:30:06;8.05;;;4.15;;
39502;SDS011;26970;49.900;10.774;2023-11-22T04:32:39;6.40;;;3.85;;
39502;SDS011;26970;49.900;10.774;2023-11-22T04:35:06;7.55;;;3.60;;
39502;SDS011;26970;49.900;10.774;2023-11-22T04:37:32;5.93;;;3.42;;
39502;SDS011;26970;49.900;10.774;2023-11-22T04:39:58;8.60;;;4.78;;
39502;SDS011;26970;49.900;10.774;2023-11-22T04:42:26;7.07;;;3.72;;
39502;SDS011;26970;49.900;10.774;2023-11-22T04:44:53;6.85;;;3.90;;
39502;SDS011;26970;49.900;10.774;2023-11-22T04:47:19;10.07;;;4.32;;
39502;SDS011;26970;49.900;10.774;2023-11-22T04:49:46;7.50;;;3.95;;
39502;SDS011;26970;49.900;10.774;2023-11-22T04:52:12;9.63;;;4.50;;
39502;SDS011;26970;49.900;10.774;2023-11-22T04:54:38;7.47;;;4.13;;
39502;SDS011;26970;49.900;10.774;2023-11-22T04:57:04;6.97;;;3.58;;
39502;SDS011;26970;49.900;10.774;2023-11-22T04:59:30;8.40;;;3.83;;
39502;SDS011;26970;49.900;10.774;2023-11-22T05:01:56;6.88;;;4.18;;
39502;SDS011;26970;49.900;10.774;2023-11-22T05:04:22;7.63;;;4.18;;
39502;SDS011;26970;49.900;10.774;2023-11-22T05:06:48;4.88;;;3.28;;
39502;SDS011;26970;49.900;10.774;2023-11-22T05:09:13;8.45;;;4.18;;
39502;SDS011;26970;49.900;10.774;2023-11-22T05:11:39;8.57;;;4.90;;
39502;SDS011;26970;49.900;10.774;2023-11-22T05:14:09;11.18;;;5.00;;
39502;SDS011;26970;49.900;10.774;2023-11-22T05:16:35;6.10;;;3.28;;
39502;SDS011;26970;49.900;10.774;2023-11-22T05:19:01;6.55;;;3.83;;
39502;SDS011;26970;49.900;10.774;2023-11-22T05:21:26;7.07;;;4.07;;
39502;SDS011;26970;49.900;10.774;2023-11-22T05:23:52;7.45;;;4.35;;
39502;SDS011;26970;49.900;10.774;2023-11-22T05:26:19;8.93;;;5.15;;
39502;SDS011;26970;49.900;10.774;2023-11-22T05:28:47;8.57;;;4.72;;
39502;SDS011;26970;49.900;10.774;2023-11-22T05:31:13;8.52;;;4.35;;
39502;SDS011;26970;49.900;10.774;2023-11-22T05:33:39;9.43;;;4.80;;
39502;SDS011;26970;49.900;10.774;2023-11-22T05:36:05;7.97;;;4.60;;
39502;SDS011;26970;49.900;10.774;2023-11-22T05:38:31;8.63;;;4.45;;
39502;SDS011;26970;49.900;10.774;2023-11-22T05:40:58;7.60;;;4.15;;
39502;SDS011;26970;49.900;10.774;2023-11-22T05:43:25;9.57;;;5.10;;
39502;SDS011;26970;49.900;10.774;2023-11-22T05:45:52;8.40;;;4.78;;
39502;SDS011;26970;49.900;10.774;2023-11-22T05:48:20;10.63;;;5.72;;
39502;SDS011;26970;49.900;10.774;2023-11-22T05:50:46;8.68;;;5.30;;
39502;SDS011;26970;49.900;10.774;2023-11-22T05:53:13;9.13;;;5.43;;
39502;SDS011;26970;49.900;10.774;2023-11-22T05:55:44;9.77;;;5.03;;
39502;SDS011;26970;49.900;10.774;2023-11-22T05:58:10;8.35;;;4.70;;
39502;SDS011;26970;49.900;10.774;2023-11-22T06:00:36;7.03;;;4.13;;
39502;SDS011;26970;49.900;10.774;2023-11-22T06:03:03;11.70;;;5.80;;
39502;SDS011;26970;49.900;10.774;2023-11-22T06:05:29;9.98;;;6.05;;
39502;SDS011;26970;49.900;10.774;2023-11-22T06:07:55;14.00;;;5.95;;
39502;SDS011;26970;49.900;10.774;2023-11-22T06:10:21;12.70;;;6.18;;
39502;SDS011;26970;49.900;10.774;2023-11-22T06:12:47;8.77;;;4.45;;
39502;SDS011;26970;49.900;10.774;2023-11-22T06:15:13;9.02;;;4.40;;
39502;SDS011;26970;49.900;10.774;2023-11-22T06:17:38;10.93;;;5.78;;
39502;SDS011;26970;49.900;10.774;2023-11-22T06:20:04;12.02;;;6.10;;
39502;SDS011;26970;49.900;10.774;2023-11-22T06:22:31;8.55;;;5.07;;
39502;SDS011;26970;49.900;10.774;2023-11-22T06:24:57;12.90;;;5.50;;
39502;SDS011;26970;49.900;10.774;2023-11-22T06:27:23;10.07;;;6.03;;
39502;SDS011;26970;49.900;10.774;2023-11-22T06:29:48;13.80;;;5.88;;
39502;SDS011;26970;49.900;10.774;2023-11-22T06:32:14;12.57;;;6.45;;
39502;SDS011;26970;49.900;10.774;2023-11-22T06:34:39;14.57;;;7.70;;
39502;SDS011;26970;49.900;10.774;2023-11-22T06:37:05;15.88;;;7.65;;
39502;SDS011;26970;49.900;10.774;2023-11-22T06:39:33;15.35;;;7.25;;
39502;SDS011;26970;49.900;10.774;2023-11-22T06:42:00;18.40;;;8.57;;
39502;SDS011;26970;49.900;10.774;2023-11-22T06:44:25;18.73;;;6.65;;
39502;SDS011;26970;49.900;10.774;2023-11-22T06:46:52;16.15;;;7.88;;
39502;SDS011;26970;49.900;10.774;2023-11-22T06:49:18;15.38;;;6.70;;
39502;SDS011;26970;49.900;10.774;2023-11-22T06:51:44;16.45;;;7.80;;
39502;SDS011;26970;49.900;10.774;2023-11-22T06:54:09;7.88;;;3.70;;
39502;SDS011;26970;49.900;10.774;2023-11-22T06:56:35;11.98;;;6.43;;
39502;SDS011;26970;49.900;10.774;2023-11-22T06:59:01;19.23;;;6.47;;
39502;SDS011;26970;49.900;10.774;2023-11-22T07:01:26;12.35;;;6.60;;
39502;SDS011;26970;49.900;10.774;2023-11-22T07:03:52;12.60;;;6.28;;
39502;SDS011;26970;49.900;10.774;2023-11-22T07:06:18;12.45;;;6.10;;
39502;SDS011;26970;49.900;10.774;2023-11-22T07:08:46;14.88;;;7.35;;
39502;SDS011;26970;49.900;10.774;2023-11-22T07:11:12;13.55;;;7.53;;
39502;SDS011;26970;49.900;10.774;2023-11-22T07:13:38;15.57;;;8.75;;
39502;SDS011;26970;49.900;10.774;2023-11-22T07:16:05;16.80;;;9.40;;
39502;SDS011;26970;49.900;10.774;2023-11-22T07:18:32;12.20;;;6.20;;
39502;SDS011;26970;49.900;10.774;2023-11-22T07:20:58;16.83;;;8.63;;
39502;SDS011;26970;49.900;10.774;2023-11-22T07:23:24;14.73;;;8.20;;
39502;SDS011;26970;49.900;10.774;2023-11-22T07:25:53;13.32;;;6.30;;
39502;SDS011;26970;49.900;10.774;2023-11-22T07:28:19;14.75;;;8.13;;
39502;SDS011;26970;49.900;10.774;2023-11-22T07:30:45;9.15;;;5.15;;
39502;SDS011;26970;49.900;10.774;2023-11-22T07:33:13;12.13;;;6.75;;
39502;SDS011;26970;49.900;10.774;2023-11-22T07:35:40;12.70;;;7.03;;
39502;SDS011;26970;49.900;10.774;2023-11-22T07:38:05;13.57;;;7.20;;
39502;SDS011;26970;49.900;10.774;2023-11-22T07:40:33;8.88;;;5.68;;
39502;SDS011;26970;49.900;10.774;2023-11-22T07:42:59;13.85;;;5.53;;
39502;SDS011;26970;49.900;10.774;2023-11-22T07:45:27;11.20;;;6.65;;
39502;SDS011;26970;49.900;10.774;2023-11-22T07:47:54;8.15;;;4.20;;
39502;SDS011;26970;49.900;10.774;2023-11-22T07:50:23;11.45;;;5.53;;
39502;SDS011;26970;49.900;10.774;2023-11-22T07:52:49;11.35;;;4.97;;
39502;SDS011;26970;49.900;10.774;2023-11-22T07:55:15;11.85;;;5.75;;
39502;SDS011;26970;49.900;10.774;2023-11-22T07:57:43;5.18;;;3.13;;
39502;SDS011;26970;49.900;10.774;2023-11-22T08:00:10;8.45;;;4.97;;
39502;SDS011;26970;49.900;10.774;2023-11-22T08:02:36;10.05;;;5.07;;
39502;SDS011;26970;49.900;10.774;2023-11-22T08:05:07;8.02;;;4.18;;
39502;SDS011;26970;49.900;10.774;2023-11-22T08:07:36;7.45;;;4.47;;
39502;SDS011;26970;49.900;10.774;2023-11-22T08:12:37;5.72;;;3.47;;
39502;SDS011;26970;49.900;10.774;2023-11-22T08:15:03;10.98;;;6.38;;
39502;SDS011;26970;49.900;10.774;2023-11-22T08:17:29;8.32;;;4.97;;
39502;SDS011;26970;49.900;10.774;2023-11-22T08:19:57;9.30;;;5.40;;
39502;SDS011;26970;49.900;10.774;2023-11-22T08:22:24;10.77;;;6.40;;
39502;SDS011;26970;49.900;10.774;2023-11-22T08:24:52;15.40;;;8.77;;
39502;SDS011;26970;49.900;10.774;2023-11-22T08:27:18;9.98;;;4.78;;
39502;SDS011;26970;49.900;10.774;2023-11-22T08:29:44;7.30;;;4.00;;
39502;SDS011;26970;49.900;10.774;2023-11-22T08:32:12;12.07;;;5.43;;
39502;SDS011;26970;49.900;10.774;2023-11-22T08:34:38;10.35;;;5.57;;
39502;SDS011;26970;49.900;10.774;2023-11-22T08:37:03;4.25;;;3.08;;
39502;SDS011;26970;49.900;10.774;2023-11-22T08:39:29;5.05;;;3.22;;
39502;SDS011;26970;49.900;10.774;2023-11-22T08:41:54;8.32;;;3.63;;
39502;SDS011;26970;49.900;10.774;2023-11-22T08:44:20;12.75;;;4.85;;
39502;SDS011;26970;49.900;10.774;2023-11-22T08:46:46;9.65;;;5.38;;
39502;SDS011;26970;49.900;10.774;2023-11-22T08:49:12;7.97;;;4.45;;
39502;SDS011;26970;49.900;10.774;2023-11-22T08:51:40;8.68;;;5.30;;
39502;SDS011;26970;49.900;10.774;2023-11-22T08:54:07;9.82;;;5.93;;
39502;SDS011;26970;49.900;10.774;2023-11-22T08:56:33;10.27;;;5.03;;
39502;SDS011;26970;49.900;10.774;2023-11-22T08:59:00;12.13;;;5.93;;
39502;SDS011;26970;49.900;10.774;2023-11-22T09:01:25;8.55;;;4.60;;
39502;SDS011;26970;49.900;10.774;2023-11-22T09:03:51;9.00;;;5.30;;
39502;SDS011;26970;49.900;10.774;2023-11-22T09:06:17;8.68;;;5.97;;
39502;SDS011;26970;49.900;10.774;2023-11-22T09:08:43;8.77;;;3.97;;
39502;SDS011;26970;49.900;10.774;2023-11-22T09:11:11;9.02;;;5.63;;
39502;SDS011;26970;49.900;10.774;2023-11-22T09:13:36;10.52;;;5.32;;
39502;SDS011;26970;49.900;10.774;2023-11-22T09:16:02;12.15;;;6.35;;
39502;SDS011;26970;49.900;10.774;2023-11-22T09:18:31;9.60;;;4.72;;
39502;SDS011;26970;49.900;10.774;2023-11-22T09:20:56;10.35;;;6.00;;
39502;SDS011;26970;49.900;10.774;2023-11-22T09:23:22;13.05;;;4.85;;
39502;SDS011;26970;49.900;10.774;2023-11-22T09:25:51;10.27;;;5.72;;
39502;SDS011;26970;49.900;10.774;2023-11-22T09:28:16;8.43;;;4.07;;
39502;SDS011;26970;49.900;10.774;2023-11-22T09:30:42;9.23;;;5.70;;
39502;SDS011;26970;49.900;10.774;2023-11-22T09:33:09;6.07;;;4.28;;
39502;SDS011;26970;49.900;10.774;2023-11-22T09:35:36;6.60;;;3.60;;
39502;SDS011;26970;49.900;10.774;2023-11-22T09:38:03;10.15;;;4.50;;
39502;SDS011;26970;49.900;10.774;2023-11-22T09:40:34;8.07;;;4.80;;
39502;SDS011;26970;49.900;10.774;2023-11-22T09:43:01;8.93;;;3.72;;
39502;SDS011;26970;49.900;10.774;2023-11-22T09:45:27;7.93;;;4.30;;
39502;SDS011;26970;49.900;10.774;2023-11-22T09:47:57;11.15;;;5.55;;
39502;SDS011;26970;49.900;10.774;2023-11-22T09:50:30;9.02;;;5.05;;
39502;SDS011;26970;49.900;10.774;2023-11-22T09:56:00;9.27;;;5.22;;
39502;SDS011;26970;49.900;10.774;2023-11-22T09:58:31;8.13;;;4.60;;
39502;SDS011;26970;49.900;10.774;2023-11-22T10:00:59;8.18;;;5.20;;
39502;SDS011;26970;49.900;10.774;2023-11-22T10:03:25;11.05;;;5.30;;
39502;SDS011;26970;49.900;10.774;2023-11-22T10:05:52;8.25;;;4.32;;
39502;SDS011;26970;49.900;10.774;2023-11-22T10:08:18;8.20;;;4.40;;
39502;SDS011;26970;49.900;10.774;2023-11-22T10:10:46;9.57;;;4.07;;
39502;SDS011;26970;49.900;10.774;2023-11-22T10:13:16;6.60;;;4.03;;
39502;SDS011;26970;49.900;10.774;2023-11-22T10:15:45;10.60;;;5.80;;
39502;SDS011;26970;49.900;10.774;2023-11-22T10:18:14;5.00;;;3.53;;
39502;SDS011;26970;49.900;10.774;2023-11-22T10:20:41;7.43;;;4.00;;
39502;SDS011;26970;49.900;10.774;2023-11-22T10:23:11;7.40;;;4.40;;
39502;SDS011;26970;49.900;10.774;2023-11-22T10:25:50;7.53;;;4.25;;
39502;SDS011;26970;49.900;10.774;2023-11-22T10:28:21;9.27;;;4.70;;
39502;SDS011;26970;49.900;10.774;2023-11-22T10:30:49;8.23;;;4.68;;
39502;SDS011;26970;49.900;10.774;2023-11-22T10:33:16;8.25;;;4.88;;
39502;SDS011;26970;49.900;10.774;2023-11-22T10:35:46;8.45;;;5.05;;
39502;SDS011;26970;49.900;10.774;2023-11-22T10:38:19;7.93;;;4.35;;
39502;SDS011;26970;49.900;10.774;2023-11-22T10:40:46;7.65;;;4.38;;
39502;SDS011;26970;49.900;10.774;2023-11-22T10:43:13;6.90;;;3.85;;
39502;SDS011;26970;49.900;10.774;2023-11-22T10:45:40;6.22;;;3.92;;
39502;SDS011;26970;49.900;10.774;2023-11-22T10:48:09;9.27;;;4.43;;
39502;SDS011;26970;49.900;10.774;2023-11-22T10:50:36;7.40;;;4.30;;
39502;SDS011;26970;49.900;10.774;2023-11-22T10:53:02;9.40;;;5.43;;
39502;SDS011;26970;49.900;10.774;2023-11-22T10:55:32;11.18;;;4.63;;
39502;SDS011;26970;49.900;10.774;2023-11-22T10:58:01;9.15;;;4.65;;
39502;SDS011;26970;49.900;10.774;2023-11-22T11:00:29;7.47;;;4.05;;
39502;SDS011;26970;49.900;10.774;2023-11-22T11:03:01;10.32;;;5.07;;
39502;SDS011;26970;49.900;10.774;2023-11-22T11:05:34;10.35;;;4.75;;
39502;SDS011;26970;49.900;10.774;2023-11-22T11:08:11;9.13;;;4.53;;
39502;SDS011;26970;49.900;10.774;2023-11-22T11:10:42;8.38;;;4.88;;
39502;SDS011;26970;49.900;10.774;2023-11-22T11:13:09;6.90;;;3.97;;
39502;SDS011;26970;49.900;10.774;2023-11-22T11:15:37;8.60;;;4.78;;
39502;SDS011;26970;49.900;10.774;2023-11-22T11:18:07;7.75;;;4.57;;
39502;SDS011;26970;49.900;10.774;2023-11-22T11:20:45;8.40;;;4.38;;
39502;SDS011;26970;49.900;10.774;2023-11-22T11:25:54;6.57;;;4.22;;
39502;SDS011;26970;49.900;10.774;2023-11-22T11:28:21;11.40;;;4.43;;
39502;SDS011;26970;49.900;10.774;2023-11-22T11:30:50;7.65;;;4.40;;
39502;SDS011;26970;49.900;10.774;2023-11-22T11:33:19;7.80;;;4.60;;
39502;SDS011;26970;49.900;10.774;2023-11-22T11:35:51;7.15;;;3.92;;
39502;SDS011;26970;49.900;10.774;2023-11-22T11:38:20;8.95;;;4.90;;
39502;SDS011;26970;49.900;10.774;2023-11-22T11:40:46;5.97;;;3.10;;
39502;SDS011;26970;49.900;10.774;2023-11-22T11:43:13;6.78;;;3.80;;
39502;SDS011;26970;49.900;10.774;2023-11-22T11:45:39;9.68;;;3.88;;
39502;SDS011;26970;49.900;10.774;2023-11-22T11:48:11;7.72;;;3.83;;
39502;SDS011;26970;49.900;10.774;2023-11-22T11:50:41;11.05;;;4.57;;
39502;SDS011;26970;49.900;10.774;2023-11-22T11:53:07;7.95;;;4.45;;
39502;SDS011;26970;49.900;10.774;2023-11-22T11:55:33;7.80;;;4.13;;
39502;SDS011;26970;49.900;10.774;2023-11-22T11:58:04;6.88;;;3.70;;
39502;SDS011;26970;49.900;10.774;2023-11-22T12:00:32;9.27;;;4.28;;
39502;SDS011;26970;49.900;10.774;2023-11-22T12:02:58;6.95;;;3.67;;
39502;SDS011;26970;49.900;10.774;2023-11-22T12:05:23;6.68;;;3.55;;
39502;SDS011;26970;49.900;10.774;2023-11-22T12:07:50;7.75;;;4.10;;
39502;SDS011;26970;49.900;10.774;2023-11-22T12:10:15;6.07;;;3.17;;
39502;SDS011;26970;49.900;10.774;2023-11-22T12:12:42;8.52;;;3.80;;
39502;SDS011;26970;49.900;10.774;2023-11-22T12:15:09;9.55;;;4.95;;
39502;SDS011;26970;49.900;10.774;2023-11-22T12:17:35;7.43;;;4.10;;
39502;SDS011;26970;49.900;10.774;2023-11-22T12:20:14;7.93;;;4.30;;
39502;SDS011;26970;49.900;10.774;2023-11-22T12:22:46;9.65;;;4.55;;
39502;SDS011;26970;49.900;10.774;2023-11-22T12:25:12;10.68;;;4.30;;
39502;SDS011;26970;49.900;10.774;2023-11-22T12:27:39;6.70;;;4.45;;
39502;SDS011;26970;49.900;10.774;2023-11-22T12:30:06;7.75;;;4.15;;
39502;SDS011;26970;49.900;10.774;2023-11-22T12:32:32;6.85;;;4.10;;
39502;SDS011;26970;49.900;10.774;2023-11-22T12:34:58;7.35;;;4.10;;
39502;SDS011;26970;49.900;10.774;2023-11-22T12:37:23;10.10;;;4.90;;
39502;SDS011;26970;49.900;10.774;2023-11-22T12:39:50;5.95;;;3.63;;
39502;SDS011;26970;49.900;10.774;2023-11-22T12:42:19;8.15;;;4.45;;
39502;SDS011;26970;49.900;10.774;2023-11-22T12:44:52;9.00;;;4.72;;
39502;SDS011;26970;49.900;10.774;2023-11-22T12:47:33;11.13;;;5.80;;
39502;SDS011;26970;49.900;10.774;2023-11-22T12:50:02;7.68;;;4.15;;
39502;SDS011;26970;49.900;10.774;2023-11-22T12:52:32;11.20;;;5.07;;
39502;SDS011;26970;49.900;10.774;2023-11-22T12:54:58;10.85;;;4.80;;
39502;SDS011;26970;49.900;10.774;2023-11-22T12:57:24;7.68;;;4.75;;
39502;SDS011;26970;49.900;10.774;2023-11-22T12:59:50;8.90;;;3.97;;
39502;SDS011;26970;49.900;10.774;2023-11-22T13:02:16;7.30;;;4.00;;
39502;SDS011;26970;49.900;10.774;2023-11-22T13:04:42;7.20;;;4.30;;
39502;SDS011;26970;49.900;10.774;2023-11-22T13:07:08;7.65;;;4.43;;
39502;SDS011;26970;49.900;10.774;2023-11-22T13:09:34;6.55;;;3.92;;
39502;SDS011;26970;49.900;10.774;2023-11-22T13:12:00;7.50;;;4.20;;
39502;SDS011;26970;49.900;10.774;2023-11-22T13:14:26;9.85;;;4.15;;
39502;SDS011;26970;49.900;10.774;2023-11-22T13:16:57;5.85;;;3.83;;
39502;SDS011;26970;49.900;10.774;2023-11-22T13:19:22;7.05;;;4.00;;
39502;SDS011;26970;49.900;10.774;2023-11-22T13:21:49;6.95;;;4.15;;
39502;SDS011;26970;49.900;10.774;2023-11-22T13:24:15;7.45;;;4.03;;
39502;SDS011;26970;49.900;10.774;2023-11-22T13:26:43;8.90;;;4.15;;
39502;SDS011;26970;49.900;10.774;2023-11-22T13:29:08;6.60;;;3.92;;
39502;SDS011;26970;49.900;10.774;2023-11-22T13:31:34;7.18;;;4.20;;
39502;SDS011;26970;49.900;10.774;2023-11-22T13:34:00;10.50;;;4.85;;
39502;SDS011;26970;49.900;10.774;2023-11-22T13:36:25;8.80;;;4.40;;
39502;SDS011;26970;49.900;10.774;2023-11-22T13:38:51;8.13;;;5.05;;
39502;SDS011;26970;49.900;10.774;2023-11-22T13:41:17;7.25;;;3.95;;
39502;SDS011;26970;49.900;10.774;2023-11-22T13:43:42;7.65;;;4.20;;
39502;SDS011;26970;49.900;10.774;2023-11-22T13:46:08;7.63;;;5.05;;
39502;SDS011;26970;49.900;10.774;2023-11-22T13:48:37;14.68;;;5.65;;
39502;SDS011;26970;49.900;10.774;2023-11-22T13:51:02;7.30;;;4.55;;
39502;SDS011;26970;49.900;10.774;2023-11-22T13:53:29;6.25;;;4.28;;
39502;SDS011;26970;49.900;10.774;2023-11-22T13:55:59;8.75;;;4.03;;
39502;SDS011;26970;49.900;10.774;2023-11-22T13:58:25;7.78;;;4.25;;
39502;SDS011;26970;49.900;10.774;2023-11-22T14:00:51;6.28;;;3.80;;
39502;SDS011;26970;49.900;10.774;2023-11-22T14:03:19;5.88;;;3.50;;
39502;SDS011;26970;49.900;10.774;2023-11-22T14:05:47;7.07;;;3.88;;
39502;SDS011;26970;49.900;10.774;2023-11-22T14:08:13;9.23;;;5.95;;
39502;SDS011;26970;49.900;10.774;2023-11-22T14:10:40;9.07;;;5.18;;
39502;SDS011;26970;49.900;10.774;2023-11-22T14:13:05;7.90;;;4.05;;
39502;SDS011;26970;49.900;10.774;2023-11-22T14:15:33;6.53;;;4.05;;
39502;SDS011;26970;49.900;10.774;2023-11-22T14:17:59;6.35;;;3.92;;
39502;SDS011;26970;49.900;10.774;2023-11-22T14:20:25;6.43;;;4.20;;
39502;SDS011;26970;49.900;10.774;2023-11-22T14:22:51;8.88;;;3.75;;
39502;SDS011;26970;49.900;10.774;2023-11-22T14:25:17;6.88;;;4.10;;
39502;SDS011;26970;49.900;10.774;2023-11-22T14:27:43;6.07;;;3.63;;
39502;SDS011;26970;49.900;10.774;2023-11-22T14:30:10;7.78;;;3.88;;
39502;SDS011;26970;49.900;10.774;2023-11-22T14:32:40;6.75;;;4.10;;
39502;SDS011;26970;49.900;10.774;2023-11-22T14:35:07;5.50;;;3.72;;
39502;SDS011;26970;49.900;10.774;2023-11-22T14:37:33;7.88;;;4.55;;